createdAt,value
2019-02-17T00:00:58.830Z,-3.65
2019-02-17T00:03:49.866Z,-3.53
2019-02-17T00:06:38.819Z,-3.55
2019-02-17T00:09:31.642Z,-3.64
2019-02-17T00:12:20.953Z,-3.69
2019-02-17T00:15:10.446Z,-3.55
2019-02-17T00:18:03.215Z,-3.50
2019-02-17T00:20:53.350Z,-3.86
2019-02-17T00:23:43.301Z,-3.70
2019-02-17T00:26:35.662Z,-3.71
2019-02-17T00:29:25.653Z,-3.55
2019-02-17T00:32:14.900Z,-3.69
2019-02-17T00:35:05.008Z,-3.72
2019-02-17T00:37:54.463Z,-3.98
2019-02-17T00:40:44.019Z,-3.71
2019-02-17T00:43:33.350Z,-3.95
2019-02-17T00:46:23.287Z,-4.12
2019-02-17T00:49:12.303Z,-4.44
2019-02-17T00:52:03.403Z,-4.26
2019-02-17T00:54:52.613Z,-4.18
2019-02-17T00:57:42.252Z,-3.87
2019-02-17T01:00:31.000Z,-3.79
2019-02-17T01:03:20.306Z,-3.70
2019-02-17T01:06:09.623Z,-3.77
2019-02-17T01:09:00.759Z,-3.69
2019-02-17T01:11:49.995Z,-3.48
2019-02-17T01:14:38.868Z,-3.47
2019-02-17T01:17:28.473Z,-3.46
2019-02-17T01:20:18.021Z,-3.87
2019-02-17T01:23:07.425Z,-3.78
2019-02-17T01:25:57.271Z,-3.91
2019-02-17T01:28:46.980Z,-3.74
2019-02-17T01:31:36.574Z,-3.58
2019-02-17T01:34:25.868Z,-4.01
2019-02-17T01:37:15.221Z,-4.42
2019-02-17T01:40:04.702Z,-4.61
2019-02-17T01:42:54.069Z,-4.73
2019-02-17T01:45:43.511Z,-4.80
2019-02-17T01:48:32.723Z,-4.89
2019-02-17T01:51:22.272Z,-4.92
2019-02-17T01:54:11.961Z,-4.82
2019-02-17T01:57:01.462Z,-4.78
2019-02-17T01:59:50.381Z,-4.90
2019-02-17T02:02:39.119Z,-4.80
2019-02-17T02:05:28.416Z,-4.64
2019-02-17T02:08:18.260Z,-4.57
2019-02-17T02:11:07.364Z,-4.49
2019-02-17T02:13:56.720Z,-4.34
2019-02-17T02:16:45.588Z,-4.19
2019-02-17T02:19:35.083Z,-4.02
2019-02-17T02:22:23.962Z,-3.87
2019-02-17T02:25:13.316Z,-3.91
2019-02-17T02:28:02.583Z,-4.13
2019-02-17T02:30:51.830Z,-4.14
2019-02-17T02:33:40.737Z,-4.25
2019-02-17T02:36:30.216Z,-4.18
2019-02-17T02:39:19.338Z,-4.19
2019-02-17T02:42:08.848Z,-4.06
2019-02-17T02:44:58.504Z,-3.99
2019-02-17T02:47:47.510Z,-3.87
2019-02-17T02:50:37.185Z,-3.77
2019-02-17T02:53:26.646Z,-3.95
2019-02-17T02:56:16.003Z,-4.18
2019-02-17T02:59:05.428Z,-4.58
2019-02-17T03:01:54.387Z,-4.65
2019-02-17T03:04:43.100Z,-4.84
2019-02-17T03:07:32.490Z,-4.64
2019-02-17T03:10:22.276Z,-4.47
2019-02-17T03:13:11.401Z,-4.96
2019-02-17T03:16:00.639Z,-4.97
2019-02-17T03:18:49.558Z,-5.17
2019-02-17T03:21:38.925Z,-4.83
2019-02-17T03:24:28.153Z,-4.92
2019-02-17T03:27:17.825Z,-4.53
2019-02-17T03:30:08.222Z,-4.76
2019-02-17T03:32:57.365Z,-4.85
2019-02-17T03:35:46.975Z,-4.98
2019-02-17T03:38:36.294Z,-4.68
2019-02-17T03:41:25.708Z,-4.71
2019-02-17T03:44:14.962Z,-4.55
2019-02-17T03:47:04.483Z,-4.49
2019-02-17T03:49:53.748Z,-4.74
2019-02-17T03:52:43.423Z,-4.49
2019-02-17T03:55:32.595Z,-4.35
2019-02-17T03:58:21.840Z,-4.64
2019-02-17T04:01:11.141Z,-4.72
2019-02-17T04:04:00.749Z,-4.83
2019-02-17T04:06:49.816Z,-4.82
2019-02-17T04:09:39.460Z,-4.61
2019-02-17T04:12:28.158Z,-4.23
2019-02-17T04:15:17.233Z,-4.37
2019-02-17T04:18:06.476Z,-4.62
2019-02-17T04:20:56.253Z,-4.70
2019-02-17T04:23:45.572Z,-4.92
2019-02-17T04:26:34.432Z,-5.12
2019-02-17T04:29:23.721Z,-5.35
2019-02-17T04:32:13.048Z,-5.34
2019-02-17T04:35:02.297Z,-5.46
2019-02-17T04:37:51.632Z,-5.60
2019-02-17T04:40:41.294Z,-5.57
2019-02-17T04:43:30.699Z,-5.47
2019-02-17T04:46:19.658Z,-5.17
2019-02-17T04:49:09.246Z,-5.11
2019-02-17T04:51:58.048Z,-4.89
2019-02-17T04:54:47.323Z,-4.73
2019-02-17T04:57:36.991Z,-4.61
2019-02-17T05:00:25.986Z,-4.51
2019-02-17T05:03:15.614Z,-4.57
2019-02-17T05:06:05.250Z,-4.44
2019-02-17T05:08:54.515Z,-4.35
2019-02-17T05:11:44.242Z,-4.38
2019-02-17T05:14:33.885Z,-4.34
2019-02-17T05:17:24.603Z,-4.48
2019-02-17T05:20:13.869Z,-4.56
2019-02-17T05:23:02.961Z,-5.30
2019-02-17T05:25:52.070Z,-5.58
2019-02-17T05:28:41.695Z,-5.17
2019-02-17T05:31:31.125Z,-4.92
2019-02-17T05:34:20.353Z,-5.02
2019-02-17T05:37:09.859Z,-4.80
2019-02-17T05:40:01.324Z,-5.21
2019-02-17T05:42:50.921Z,-5.54
2019-02-17T05:45:40.663Z,-5.37
2019-02-17T05:48:30.009Z,-5.45
2019-02-17T05:51:20.065Z,-5.38
2019-02-17T05:54:08.847Z,-5.38
2019-02-17T05:56:58.165Z,-5.55
2019-02-17T05:59:47.439Z,-5.62
2019-02-17T06:02:36.552Z,-5.27
2019-02-17T06:05:25.877Z,-5.27
2019-02-17T06:08:15.347Z,-5.15
2019-02-17T06:11:04.866Z,-4.81
2019-02-17T06:13:53.707Z,-4.51
2019-02-17T06:16:43.120Z,-3.92
2019-02-17T06:19:32.871Z,-3.59
2019-02-17T06:22:22.105Z,-3.26
2019-02-17T06:25:11.397Z,-2.93
2019-02-17T06:28:00.307Z,-2.43
2019-02-17T06:30:50.876Z,-1.94
2019-02-17T06:33:39.638Z,-1.48
2019-02-17T06:36:28.995Z,-1.33
2019-02-17T06:39:18.511Z,-1.22
2019-02-17T06:42:07.981Z,-1.29
2019-02-17T06:44:58.060Z,-0.90
2019-02-17T06:47:46.995Z,-0.88
2019-02-17T06:50:36.363Z,-1.84
2019-02-17T06:53:25.186Z,-1.76
2019-02-17T06:56:21.394Z,-1.40
2019-02-17T06:59:11.012Z,-1.11
2019-02-17T07:02:00.601Z,-0.97
2019-02-17T07:05:21.835Z,-0.74
2019-02-17T07:08:15.900Z,-0.61
2019-02-17T07:11:04.918Z,-1.01
2019-02-17T07:13:54.188Z,-0.71
2019-02-17T07:16:43.875Z,-0.45
2019-02-17T07:19:33.082Z,-0.24
2019-02-17T07:22:22.355Z,0.05
2019-02-17T07:25:11.568Z,0.20
2019-02-17T07:28:00.872Z,0.47
2019-02-17T07:30:50.269Z,0.73
2019-02-17T07:33:42.308Z,0.99
2019-02-17T07:36:32.957Z,1.11
2019-02-17T07:39:22.448Z,1.16
2019-02-17T07:42:11.881Z,1.26
2019-02-17T07:45:01.176Z,1.37
2019-02-17T07:47:50.491Z,1.49
2019-02-17T07:50:39.364Z,1.64
2019-02-17T07:53:28.638Z,2.08
2019-02-17T07:56:17.702Z,1.90
2019-02-17T07:59:06.930Z,2.10
2019-02-17T08:01:56.282Z,2.15
2019-02-17T08:04:50.494Z,2.22
2019-02-17T08:07:39.806Z,2.29
2019-02-17T08:10:28.822Z,2.57
2019-02-17T08:13:18.268Z,2.54
2019-02-17T08:16:07.937Z,2.53
2019-02-17T08:18:57.235Z,2.78
2019-02-17T08:21:46.129Z,2.92
2019-02-17T08:24:35.444Z,3.17
2019-02-17T08:27:28.218Z,3.31
2019-02-17T08:30:17.112Z,3.58
2019-02-17T08:33:06.657Z,3.54
2019-02-17T08:35:55.516Z,3.42
2019-02-17T08:38:44.816Z,3.10
2019-02-17T08:41:34.495Z,3.17
2019-02-17T08:44:27.219Z,3.63
2019-02-17T08:47:16.715Z,4.05
2019-02-17T08:50:08.557Z,4.41
2019-02-17T08:52:58.307Z,4.35
2019-02-17T08:55:47.338Z,4.46
2019-02-17T08:58:37.104Z,4.74
2019-02-17T09:01:26.600Z,4.77
2019-02-17T09:04:16.305Z,5.05
2019-02-17T09:07:06.460Z,5.25
2019-02-17T09:09:56.383Z,5.38
2019-02-17T09:12:51.214Z,5.45
2019-02-17T09:15:40.726Z,5.58
2019-02-17T09:18:29.902Z,5.53
2019-02-17T09:21:18.792Z,6.00
2019-02-17T09:24:08.630Z,5.82
2019-02-17T09:26:57.950Z,5.64
2019-02-17T09:29:47.224Z,5.87
2019-02-17T09:32:37.088Z,6.22
2019-02-17T09:35:26.574Z,6.37
2019-02-17T09:38:17.202Z,6.65
2019-02-17T09:41:06.249Z,6.75
2019-02-17T09:43:55.429Z,6.87
2019-02-17T09:46:44.774Z,6.77
2019-02-17T09:49:34.213Z,6.94
2019-02-17T09:52:25.567Z,7.03
2019-02-17T09:55:15.615Z,7.00
2019-02-17T10:01:13.642Z,7.61
2019-02-17T10:04:03.237Z,7.74
2019-02-17T10:06:52.887Z,7.53
2019-02-17T10:09:42.769Z,7.74
2019-02-17T10:12:32.820Z,7.90
2019-02-17T10:15:22.975Z,7.80
2019-02-17T10:18:12.784Z,7.62
2019-02-17T10:21:01.644Z,8.15
2019-02-17T10:23:50.467Z,8.76
2019-02-17T10:26:41.114Z,8.88
2019-02-17T10:29:29.951Z,8.95
2019-02-17T10:32:19.236Z,9.13
2019-02-17T10:35:09.901Z,9.15
2019-02-17T10:37:59.027Z,9.44
2019-02-17T10:40:47.939Z,9.41
2019-02-17T10:43:37.193Z,9.46
2019-02-17T10:46:27.490Z,9.54
2019-02-17T10:49:16.828Z,9.92
2019-02-17T10:52:05.907Z,10.07
2019-02-17T10:54:55.422Z,10.19
2019-02-17T10:57:44.516Z,10.40
2019-02-17T11:00:33.755Z,10.46
2019-02-17T11:03:23.084Z,10.62
2019-02-17T11:06:12.619Z,10.55
2019-02-17T11:09:01.335Z,10.54
2019-02-17T11:11:50.968Z,10.79
2019-02-17T11:14:40.577Z,10.73
2019-02-17T11:17:29.749Z,10.83
2019-02-17T11:20:19.076Z,11.01
2019-02-17T11:23:08.404Z,11.09
2019-02-17T11:25:57.641Z,11.30
2019-02-17T11:28:47.424Z,11.53
2019-02-17T11:31:36.806Z,11.64
2019-02-17T11:34:26.280Z,11.58
2019-02-17T11:37:15.456Z,11.60
2019-02-17T11:40:05.191Z,11.64
2019-02-17T11:42:54.836Z,11.80
2019-02-17T11:45:44.384Z,11.94
2019-02-17T11:48:33.986Z,11.76
2019-02-17T11:51:23.419Z,11.94
2019-02-17T11:54:12.441Z,12.43
2019-02-17T11:57:01.734Z,12.12
2019-02-17T11:59:50.648Z,12.26
2019-02-17T12:02:39.930Z,12.39
2019-02-17T12:05:29.412Z,12.76
2019-02-17T12:08:18.780Z,12.51
2019-02-17T12:11:08.303Z,12.63
2019-02-17T12:13:57.576Z,12.28
2019-02-17T12:16:46.706Z,12.61
2019-02-17T12:19:35.984Z,13.04
2019-02-17T12:22:30.436Z,13.20
2019-02-17T12:25:28.393Z,13.20
2019-02-17T12:28:25.335Z,13.44
2019-02-17T12:31:22.169Z,13.48
2019-02-17T12:34:11.881Z,13.72
2019-02-17T12:37:01.188Z,14.00
2019-02-17T12:39:50.663Z,14.20
2019-02-17T12:42:39.936Z,14.20
2019-02-17T12:45:29.393Z,14.35
2019-02-17T12:48:18.639Z,14.35
2019-02-17T12:51:07.666Z,14.67
2019-02-17T12:53:57.634Z,14.85
2019-02-17T12:56:47.115Z,15.14
2019-02-17T12:59:36.394Z,15.12
2019-02-17T13:02:25.720Z,15.04
2019-02-17T13:05:15.220Z,15.32
2019-02-17T13:08:04.217Z,15.14
2019-02-17T13:10:52.935Z,15.48
2019-02-17T13:13:42.466Z,15.83
2019-02-17T13:16:31.730Z,16.15
2019-02-17T13:19:21.092Z,15.94
2019-02-17T13:22:10.605Z,16.12
2019-02-17T13:24:59.931Z,15.94
2019-02-17T13:27:49.201Z,15.46
2019-02-17T13:30:38.615Z,15.39
2019-02-17T13:33:38.891Z,15.54
2019-02-17T13:36:24.846Z,15.43
2019-02-17T13:39:14.400Z,15.37
2019-02-17T13:42:03.915Z,16.12
2019-02-17T13:44:52.860Z,16.39
2019-02-17T13:47:44.441Z,17.50
2019-02-17T13:50:33.575Z,18.41
2019-02-17T13:53:23.185Z,19.33
2019-02-17T13:56:13.089Z,19.63
2019-02-17T13:59:02.530Z,18.67
2019-02-17T14:01:52.309Z,19.04
2019-02-17T14:04:45.021Z,19.28
2019-02-17T14:07:40.244Z,18.68
2019-02-17T14:10:30.171Z,19.63
2019-02-17T14:13:19.821Z,19.30
2019-02-17T14:16:11.713Z,18.28
2019-02-17T14:19:03.611Z,18.59
2019-02-17T14:22:00.786Z,19.29
2019-02-17T14:24:50.852Z,17.83
2019-02-17T14:27:40.863Z,17.84
2019-02-17T14:30:30.571Z,16.48
2019-02-17T14:33:19.260Z,14.88
2019-02-17T14:36:08.547Z,14.76
2019-02-17T14:38:57.905Z,13.46
2019-02-17T14:41:47.082Z,12.97
2019-02-17T14:44:36.082Z,12.42
2019-02-17T14:47:25.674Z,12.04
2019-02-17T14:50:15.148Z,11.88
2019-02-17T14:53:04.488Z,11.35
2019-02-17T14:55:53.884Z,10.98
2019-02-17T14:58:43.282Z,10.81
2019-02-17T15:01:34.767Z,10.52
2019-02-17T15:04:24.029Z,10.52
2019-02-17T15:07:13.311Z,10.11
2019-02-17T15:10:02.626Z,9.96
2019-02-17T15:12:51.669Z,10.14
2019-02-17T15:15:40.976Z,10.13
2019-02-17T15:18:30.374Z,9.92
2019-02-17T15:21:19.972Z,9.52
2019-02-17T15:24:09.358Z,9.50
2019-02-17T15:26:58.627Z,9.22
2019-02-17T15:29:47.502Z,8.72
2019-02-17T15:32:36.853Z,8.82
2019-02-17T15:35:26.276Z,8.60
2019-02-17T15:38:14.879Z,8.44
2019-02-17T15:41:04.363Z,8.40
2019-02-17T15:43:53.516Z,8.57
2019-02-17T15:46:42.796Z,8.26
2019-02-17T15:49:32.095Z,7.93
2019-02-17T15:52:21.261Z,7.74
2019-02-17T15:55:10.527Z,7.62
2019-02-17T15:58:00.760Z,7.53
2019-02-17T16:00:50.303Z,7.33
2019-02-17T16:03:40.135Z,7.12
2019-02-17T16:06:29.368Z,6.70
2019-02-17T16:09:03.135Z,6.96
2019-02-17T16:11:33.187Z,6.76
2019-02-17T16:14:04.085Z,7.00
2019-02-17T16:16:35.082Z,7.10
2019-02-17T16:19:05.990Z,6.99
2019-02-17T16:21:36.946Z,6.77
2019-02-17T16:24:08.040Z,6.60
2019-02-17T16:26:39.121Z,6.43
2019-02-17T16:29:10.015Z,6.37
2019-02-17T16:31:40.956Z,5.95
2019-02-17T16:34:11.844Z,5.83
2019-02-17T16:36:42.825Z,5.75
2019-02-17T16:39:14.074Z,5.41
2019-02-17T16:41:45.033Z,5.06
2019-02-17T16:44:16.272Z,4.88
2019-02-17T16:46:47.672Z,4.33
2019-02-17T16:49:18.598Z,3.87
2019-02-17T16:51:49.487Z,3.65
2019-02-17T16:54:20.687Z,3.51
2019-02-17T16:56:51.554Z,3.33
2019-02-17T16:59:22.534Z,3.03
2019-02-17T17:01:53.642Z,3.17
2019-02-17T17:04:24.522Z,3.26
2019-02-17T17:06:55.462Z,3.28
2019-02-17T17:09:26.592Z,3.16
2019-02-17T17:11:57.525Z,2.99
2019-02-17T17:14:28.435Z,2.70
2019-02-17T17:16:59.605Z,2.87
2019-02-17T17:19:30.518Z,2.86
2019-02-17T17:22:01.438Z,2.99
2019-02-17T17:24:32.308Z,3.00
2019-02-17T17:27:03.257Z,3.41
2019-02-17T17:29:34.286Z,3.20
2019-02-17T17:32:05.183Z,3.10
2019-02-17T17:34:36.069Z,2.56
2019-02-17T17:37:07.091Z,2.18
2019-02-17T17:39:37.964Z,1.92
2019-02-17T17:42:08.831Z,1.86
2019-02-17T17:44:39.789Z,1.93
2019-02-17T17:47:11.427Z,2.01
2019-02-17T17:49:45.133Z,2.23
2019-02-17T17:52:16.295Z,2.03
2019-02-17T17:54:47.165Z,2.14
2019-02-17T17:57:18.044Z,2.09
2019-02-17T17:59:49.028Z,1.98
2019-02-17T18:02:19.967Z,1.89
2019-02-17T18:04:50.966Z,1.82
2019-02-17T18:07:21.934Z,1.82
2019-02-17T18:09:55.102Z,2.09
2019-02-17T18:12:26.007Z,1.89
2019-02-17T18:14:57.026Z,1.82
2019-02-17T18:17:27.965Z,1.62
2019-02-17T18:19:58.860Z,1.39
2019-02-17T18:22:29.837Z,1.43
2019-02-17T18:25:00.797Z,1.70
2019-02-17T18:27:31.763Z,1.89
2019-02-17T18:30:02.857Z,1.88
2019-02-17T18:32:33.779Z,1.70
2019-02-17T18:35:04.767Z,1.43
2019-02-17T18:37:35.814Z,1.36
2019-02-17T18:40:07.363Z,1.62
2019-02-17T18:42:38.287Z,1.55
2019-02-17T18:45:10.663Z,1.45
2019-02-17T18:47:41.789Z,1.17
2019-02-17T18:50:14.458Z,1.10
2019-02-17T18:52:45.457Z,0.80
2019-02-17T18:55:16.468Z,1.12
2019-02-17T18:57:50.681Z,1.26
2019-02-17T19:00:20.099Z,1.26
2019-02-17T19:02:51.071Z,1.15
2019-02-17T19:05:31.511Z,1.22
2019-02-17T19:07:54.654Z,1.26
2019-02-17T19:10:25.569Z,1.07
2019-02-17T19:12:56.535Z,0.93
2019-02-17T19:15:27.451Z,0.85
2019-02-17T19:17:58.350Z,0.91
2019-02-17T19:20:29.749Z,0.76
2019-02-17T19:23:00.809Z,0.68
2019-02-17T19:25:31.820Z,0.79
2019-02-17T19:28:03.780Z,0.40
2019-02-17T19:30:34.837Z,0.31
2019-02-17T19:33:05.877Z,0.33
2019-02-17T19:35:41.929Z,0.41
2019-02-17T19:38:09.807Z,0.67
2019-02-17T19:40:40.686Z,0.62
2019-02-17T19:43:11.575Z,0.56
2019-02-17T19:45:42.566Z,0.63
2019-02-17T19:48:13.515Z,0.67
2019-02-17T19:50:44.422Z,0.70
2019-02-17T19:53:15.639Z,0.34
2019-02-17T19:55:46.680Z,0.03
2019-02-17T19:58:17.545Z,0.12
2019-02-17T20:00:48.594Z,0.11
2019-02-17T20:03:54.258Z,0.18
2019-02-17T20:06:26.609Z,0.09
2019-02-17T20:08:57.591Z,-0.01
2019-02-17T20:11:28.732Z,-0.30
2019-02-17T20:13:59.610Z,-0.47
2019-02-17T20:16:30.998Z,-0.36
2019-02-17T20:19:01.970Z,-0.32
2019-02-17T20:21:32.926Z,-0.32
2019-02-17T20:24:04.019Z,-0.25
2019-02-17T20:26:34.942Z,-0.32
2019-02-17T20:29:05.864Z,-0.44
2019-02-17T20:31:36.918Z,-0.11
2019-02-17T20:34:08.125Z,0.09
2019-02-17T20:36:39.027Z,-0.10
2019-02-17T20:39:10.643Z,-0.34
2019-02-17T20:41:41.634Z,-0.67
2019-02-17T20:44:12.759Z,-0.88
2019-02-17T20:46:43.732Z,-0.89
2019-02-17T20:49:14.603Z,-1.05
2019-02-17T20:51:45.488Z,-0.82
2019-02-17T20:54:16.439Z,-0.56
2019-02-17T20:56:47.366Z,-0.55
2019-02-17T20:59:36.650Z,-0.33
2019-02-17T21:02:26.371Z,-0.21
2019-02-17T21:05:15.726Z,-0.11
2019-02-17T21:08:05.072Z,-0.03
2019-02-17T21:10:54.497Z,-0.09
2019-02-17T21:13:45.604Z,-0.31
2019-02-17T21:16:35.208Z,-0.56
2019-02-17T21:19:30.618Z,-0.94
2019-02-17T21:22:23.823Z,-0.84
2019-02-17T21:25:20.731Z,-0.78
2019-02-17T21:28:18.346Z,-0.71
2019-02-17T21:31:11.101Z,-0.70
2019-02-17T21:34:03.736Z,-1.24
2019-02-17T21:36:53.347Z,-1.59
2019-02-17T21:39:43.979Z,-1.21
2019-02-17T21:42:33.364Z,-1.23
2019-02-17T21:45:23.279Z,-1.40
2019-02-17T21:48:12.667Z,-1.40
2019-02-17T21:51:02.118Z,-1.28
2019-02-17T21:53:51.578Z,-1.31
2019-02-17T21:56:40.955Z,-1.24
2019-02-17T21:59:32.195Z,-1.44
2019-02-17T22:02:22.154Z,-1.39
2019-02-17T22:05:11.448Z,-1.66
2019-02-17T22:08:00.938Z,-1.86
2019-02-17T22:10:50.188Z,-2.05
2019-02-17T22:13:39.761Z,-2.15
2019-02-17T22:16:29.306Z,-2.11
2019-02-17T22:19:23.496Z,-1.86
2019-02-17T22:22:12.941Z,-1.40
2019-02-17T22:25:01.882Z,-1.67
2019-02-17T22:27:51.320Z,-1.84
2019-02-17T22:30:41.159Z,-1.91
2019-02-17T22:33:30.401Z,-1.51
2019-02-17T22:36:20.097Z,-1.39
2019-02-17T22:39:09.304Z,-1.45
2019-02-17T22:41:58.705Z,-1.42
2019-02-17T22:44:47.973Z,-1.24
2019-02-17T22:47:37.230Z,-1.30
2019-02-17T22:50:26.815Z,-1.21
2019-02-17T22:53:16.218Z,-1.58
2019-02-17T22:56:05.777Z,-1.69
2019-02-17T22:58:55.091Z,-1.92
2019-02-17T23:01:44.429Z,-1.97
2019-02-17T23:04:33.861Z,-1.75
2019-02-17T23:07:23.476Z,-1.66
2019-02-17T23:10:15.106Z,-1.93
2019-02-17T23:13:06.714Z,-1.84
2019-02-17T23:15:56.085Z,-1.43
2019-02-17T23:18:45.326Z,-1.59
2019-02-17T23:21:35.138Z,-1.44
2019-02-17T23:24:24.693Z,-1.36
2019-02-17T23:27:14.390Z,-1.35
2019-02-17T23:30:04.224Z,-1.28
2019-02-17T23:32:53.898Z,-1.28
2019-02-17T23:35:43.081Z,-1.07
2019-02-17T23:38:32.450Z,-1.20
2019-02-17T23:41:21.671Z,-1.38
2019-02-17T23:44:11.282Z,-1.98
2019-02-17T23:47:00.509Z,-1.89
2019-02-17T23:49:49.860Z,-1.96
2019-02-17T23:52:39.671Z,-2.13
2019-02-17T23:55:29.487Z,-2.23
2019-02-17T23:58:18.522Z,-2.20
